Time;durP1;ratioP1;P1;durP2;ratioP2;P2;SDS_P1;SDS_P2;PMS_P1;PMS_P2;Temp;Humidity;BMP_temperature;BMP_pressure;BME280_temperature;BME280_humidity;BME280_pressure;Samples;Min_cycle;Max_cycle;Signal;HPM_P1;HPM_P2
2023/03/16 00:00:50;;;;;;;17.23;6.40;;;;;;;3.58;70.82;101457.94;5073970;28;20051;-53
2023/03/16 00:03:19;;;;;;;13.45;6.28;;;;;;;3.60;70.89;101461.31;5075341;28;20452;-53
2023/03/16 00:05:48;;;;;;;18.33;6.40;;;;;;;3.56;70.77;101459.81;5075393;28;20051;-53
2023/03/16 00:08:16;;;;;;;15.32;6.65;;;;;;;3.57;70.78;101457.09;5075495;28;20041;-52
2023/03/16 00:10:46;;;;;;;18.33;7.13;;;;;;;3.68;70.09;101453.00;5074554;28;20037;-51
2023/03/16 00:13:17;;;;;;;20.48;6.18;;;;;;;3.55;70.25;101443.22;5075393;28;20094;-51
2023/03/16 00:15:53;;;;;;;18.58;6.68;;;;;;;3.56;70.53;101438.81;5075193;28;20224;-51
2023/03/16 00:18:21;;;;;;;22.05;6.40;;;;;;;3.63;70.84;101433.09;5074979;28;20129;-51
2023/03/16 00:20:51;;;;;;;19.95;6.57;;;;;;;3.58;70.22;101432.53;5074620;28;20098;-50
2023/03/16 00:23:18;;;;;;;16.67;6.35;;;;;;;3.61;69.98;101434.16;5075258;28;20162;-51
2023/03/16 00:25:45;;;;;;;16.27;6.38;;;;;;;3.56;70.75;101430.94;5073772;28;20555;-50
2023/03/16 00:28:12;;;;;;;21.65;7.38;;;;;;;3.54;70.39;101428.41;5074951;28;20048;-53
2023/03/16 00:30:39;;;;;;;16.42;6.57;;;;;;;3.51;71.01;101426.00;5074773;28;20047;-50
2023/03/16 00:33:06;;;;;;;14.63;6.13;;;;;;;3.47;70.33;101432.31;5073774;28;20037;-53
2023/03/16 00:35:33;;;;;;;18.23;6.85;;;;;;;3.50;70.87;101436.56;5074135;28;20493;-51
2023/03/16 00:38:00;;;;;;;14.38;6.20;;;;;;;3.53;71.04;101434.59;5074141;28;20515;-53
2023/03/16 00:40:27;;;;;;;15.82;6.53;;;;;;;3.48;70.64;101435.81;5047141;28;20489;-50
2023/03/16 00:42:54;;;;;;;18.77;6.78;;;;;;;3.53;70.94;101428.50;5074216;28;20048;-53
2023/03/16 00:45:22;;;;;;;14.13;5.85;;;;;;;3.52;70.40;101424.19;5073062;28;20051;-53
2023/03/16 00:47:48;;;;;;;15.75;6.80;;;;;;;3.47;70.47;101429.72;5074696;28;20131;-54
2023/03/16 00:50:15;;;;;;;14.35;6.07;;;;;;;3.49;70.56;101427.84;5074381;28;20049;-54
2023/03/16 00:52:42;;;;;;;13.93;6.25;;;;;;;3.59;70.87;101422.91;5072985;28;20123;-54
2023/03/16 00:55:08;;;;;;;12.73;6.20;;;;;;;3.59;71.01;101420.28;5073683;28;20611;-52
2023/03/16 00:57:35;;;;;;;14.90;6.35;;;;;;;3.59;71.50;101423.72;5074301;28;20057;-53
2023/03/16 01:00:11;;;;;;;15.20;5.90;;;;;;;3.55;70.67;101422.25;5074036;28;20040;-50
2023/03/16 01:02:38;;;;;;;23.00;6.15;;;;;;;3.57;70.87;101417.75;5073257;28;20493;-52
2023/03/16 01:05:05;;;;;;;16.58;6.38;;;;;;;3.60;70.64;101414.94;5072600;28;20106;-52
2023/03/16 01:07:34;;;;;;;18.13;6.20;;;;;;;3.51;70.63;101407.63;5073379;28;20041;-49
2023/03/16 01:10:02;;;;;;;18.48;6.38;;;;;;;3.49;70.87;101406.00;5073459;28;20056;-51
2023/03/16 01:12:29;;;;;;;15.85;6.40;;;;;;;3.53;71.62;101404.88;5074245;28;20127;-50
2023/03/16 01:14:57;;;;;;;18.40;6.35;;;;;;;3.39;71.91;101401.31;5073924;28;20449;-50
2023/03/16 01:17:25;;;;;;;13.82;5.65;;;;;;;3.31;72.03;101390.44;5074227;28;20513;-51
2023/03/16 01:19:52;;;;;;;15.07;5.97;;;;;;;3.40;71.59;101386.41;5073022;28;20048;-50
2023/03/16 01:22:20;;;;;;;16.25;6.30;;;;;;;3.34;71.94;101395.50;5073673;28;20048;-51
2023/03/16 01:24:47;;;;;;;14.38;5.57;;;;;;;3.44;71.98;101393.19;5073912;28;20059;-53
2023/03/16 01:27:14;;;;;;;13.77;5.45;;;;;;;3.46;72.28;101383.44;5074095;28;20044;-53
2023/03/16 01:29:42;;;;;;;16.17;5.97;;;;;;;3.54;71.95;101380.34;5072192;28;20051;-51
2023/03/16 01:32:10;;;;;;;18.15;5.55;;;;;;;3.44;71.60;101382.69;5073695;28;20037;-49
2023/03/16 01:34:37;;;;;;;12.25;5.20;;;;;;;3.41;71.60;101378.47;5073694;28;20044;-54
2023/03/16 01:37:04;;;;;;;18.42;6.07;;;;;;;3.59;71.28;101376.50;5073117;28;20051;-51
2023/03/16 01:39:38;;;;;;;13.68;5.68;;;;;;;3.54;70.89;101370.69;5072950;28;20203;-50
2023/03/16 01:42:05;;;;;;;15.07;5.35;;;;;;;3.59;70.75;101367.81;5073240;28;20040;-52
2023/03/16 01:44:53;;;;;;;16.08;5.40;;;;;;;3.46;71.46;101355.41;5073651;28;20493;-50
2023/03/16 01:47:22;;;;;;;13.27;5.63;;;;;;;3.55;71.55;101355.81;5073844;28;20051;-51
2023/03/16 01:49:53;;;;;;;13.05;5.22;;;;;;;3.53;70.64;101358.53;5072763;28;20045;-51
2023/03/16 01:52:27;;;;;;;15.57;6.00;;;;;;;3.51;71.82;101347.28;5073396;28;20044;-50
2023/03/16 01:54:59;;;;;;;16.48;5.70;;;;;;;3.44;71.06;101351.22;5072458;28;21325;-50
2023/03/16 01:57:31;;;;;;;12.98;5.47;;;;;;;3.49;71.10;101358.78;5073539;28;20040;-50
2023/03/16 02:00:13;;;;;;;16.15;5.65;;;;;;;3.34;71.38;101356.16;5073153;28;20045;-50
2023/03/16 02:02:47;;;;;;;14.52;5.78;;;;;;;3.30;72.35;101349.41;5073278;28;20051;-52
2023/03/16 02:05:32;;;;;;;16.27;5.30;;;;;;;3.36;72.10;101350.81;5073351;28;20047;-50
2023/03/16 02:08:01;;;;;;;13.57;5.38;;;;;;;3.36;72.52;101353.44;5073433;28;20386;-51
2023/03/16 02:10:29;;;;;;;12.95;4.85;;;;;;;3.29;71.56;101352.13;5073443;28;20483;-51
2023/03/16 02:12:57;;;;;;;14.82;5.20;;;;;;;3.30;72.36;101341.53;5072565;28;20094;-51
2023/03/16 02:15:26;;;;;;;14.77;5.25;;;;;;;3.38;71.95;101339.28;5072993;28;20044;-51
2023/03/16 02:17:53;;;;;;;10.98;4.82;;;;;;;3.36;72.23;101337.72;5071385;28;20166;-51
2023/03/16 02:20:33;;;;;;;15.25;5.13;;;;;;;3.40;71.29;101333.97;5072815;28;20056;-50
2023/03/16 02:23:01;;;;;;;11.75;4.80;;;;;;;3.11;71.47;101327.84;5072101;28;20040;-50
2023/03/16 02:25:38;;;;;;;17.15;4.90;;;;;;;3.20;72.05;101325.53;5073094;28;20682;-53
2023/03/16 02:28:17;;;;;;;11.93;4.88;;;;;;;3.19;71.69;101317.75;5074690;28;20131;-51
2023/03/16 02:30:46;;;;;;;12.48;4.88;;;;;;;3.12;72.38;101321.69;5072718;28;20110;-52
2023/03/16 02:33:16;;;;;;;16.17;4.93;;;;;;;3.12;71.94;101325.13;5073095;28;20075;-50
2023/03/16 02:35:43;;;;;;;14.55;5.68;;;;;;;3.23;71.75;101320.09;5073183;28;20052;-51
2023/03/16 02:38:10;;;;;;;11.98;5.00;;;;;;;3.31;71.38;101311.78;5072599;28;20049;-53
2023/03/16 02:40:44;;;;;;;13.30;4.93;;;;;;;3.24;71.81;101311.28;5054113;28;20511;-51
2023/03/16 02:43:23;;;;;;;12.98;5.13;;;;;;;3.30;71.65;101311.88;5080922;28;20105;-53
2023/03/16 02:46:03;;;;;;;11.40;4.82;;;;;;;3.19;71.27;101304.66;5070516;28;20045;-51
2023/03/16 02:48:43;;;;;;;11.85;4.38;;;;;;;3.22;71.38;101300.06;5072685;28;20048;-52
2023/03/16 02:51:10;;;;;;;13.75;5.30;;;;;;;3.23;71.35;101306.13;5071910;28;20040;-51
2023/03/16 02:53:37;;;;;;;11.93;4.55;;;;;;;3.23;71.48;101303.53;5072183;28;20544;-52
2023/03/16 02:56:04;;;;;;;11.57;4.47;;;;;;;3.33;71.23;101293.31;5073014;28;20048;-52
2023/03/16 02:58:34;;;;;;;9.60;4.47;;;;;;;3.43;71.10;101297.88;5072785;28;20059;-51
2023/03/16 03:01:05;;;;;;;12.73;4.97;;;;;;;3.34;71.36;101287.13;5072027;28;20564;-50
2023/03/16 03:03:33;;;;;;;12.65;3.90;;;;;;;3.36;70.97;101295.75;5072553;28;20091;-51
2023/03/16 03:06:01;;;;;;;11.15;4.90;;;;;;;3.40;71.48;101294.63;5071825;28;20540;-50
2023/03/16 03:08:32;;;;;;;10.60;4.25;;;;;;;3.46;71.46;101292.47;5072914;28;20052;-50
2023/03/16 03:10:59;;;;;;;12.63;4.18;;;;;;;3.33;71.63;101270.56;5072006;28;20056;-51
2023/03/16 03:13:26;;;;;;;12.38;4.47;;;;;;;3.32;71.24;101268.03;5072791;28;20045;-50
2023/03/16 03:15:53;;;;;;;11.15;4.38;;;;;;;3.37;71.20;101272.06;5071343;28;20127;-51
2023/03/16 03:18:24;;;;;;;9.93;4.35;;;;;;;3.34;70.05;101274.84;5072498;28;20052;-51
2023/03/16 03:20:51;;;;;;;10.63;4.25;;;;;;;3.45;71.28;101271.56;5070867;28;20052;-50
2023/03/16 03:23:18;;;;;;;11.15;4.20;;;;;;;3.41;70.30;101276.16;5074251;28;20041;-50
2023/03/16 03:25:46;;;;;;;11.38;4.07;;;;;;;3.49;70.79;101287.97;5072507;28;20045;-51
2023/03/16 03:28:14;;;;;;;10.45;4.45;;;;;;;3.41;70.56;101270.91;5074843;28;20056;-50
2023/03/16 03:30:41;;;;;;;11.48;4.15;;;;;;;3.51;71.44;101272.97;5076025;28;20049;-53
2023/03/16 03:33:08;;;;;;;12.13;4.55;;;;;;;3.46;70.28;101275.91;5075320;28;20492;-51
2023/03/16 03:35:34;;;;;;;9.13;4.13;;;;;;;3.39;70.10;101272.78;5076039;28;20521;-51
2023/03/16 03:38:01;;;;;;;10.05;4.25;;;;;;;3.36;70.58;101269.50;5075281;28;20040;-50
2023/03/16 03:40:28;;;;;;;9.68;3.70;;;;;;;3.28;70.57;101264.75;5055952;28;20125;-51
2023/03/16 03:42:59;;;;;;;10.88;4.20;;;;;;;3.39;71.28;101270.19;5070582;28;20033;-51
2023/03/16 03:45:26;;;;;;;13.35;4.10;;;;;;;3.18;70.83;101276.72;5075388;28;20401;-50
2023/03/16 03:47:54;;;;;;;9.73;3.95;;;;;;;3.21;71.99;101276.56;5076553;28;20044;-51
2023/03/16 03:50:22;;;;;;;8.60;3.90;;;;;;;3.25;71.38;101264.94;5075455;28;20048;-51
2023/03/16 03:53:08;;;;;;;9.45;4.03;;;;;;;3.19;72.30;101270.56;5075191;28;20094;-50
2023/03/16 03:55:50;;;;;;;12.63;3.95;;;;;;;3.24;71.46;101266.72;5075536;28;20433;-51
2023/03/16 03:58:17;;;;;;;11.57;4.40;;;;;;;3.27;71.74;101276.16;5074854;28;20074;-51
2023/03/16 04:00:43;;;;;;;9.93;3.95;;;;;;;3.28;71.23;101277.88;5075044;28;20070;-52
2023/03/16 04:03:10;;;;;;;12.02;4.53;;;;;;;3.28;72.56;101270.00;5074064;28;20450;-50
2023/03/16 04:05:42;;;;;;;;;;;;;;;3.33;71.43;101267.06;5075584;28;20428;-51
2023/03/16 04:08:10;;;;;;;8.88;3.42;;;;;;;3.32;71.50;101257.53;5071783;28;20398;-51
2023/03/16 04:10:37;;;;;;;9.63;4.10;;;;;;;3.42;71.94;101262.13;5075527;28;20044;-54
2023/03/16 04:13:04;;;;;;;10.68;4.00;;;;;;;3.55;70.46;101258.75;5074158;28;20451;-50
2023/03/16 04:15:32;;;;;;;10.30;4.07;;;;;;;3.45;71.06;101256.66;5074348;28;20056;-52
2023/03/16 04:18:06;;;;;;;13.05;4.05;;;;;;;3.54;71.15;101257.88;5075261;28;20102;-53
2023/03/16 04:20:32;;;;;;;11.85;3.92;;;;;;;3.52;71.68;101251.88;5075106;28;20059;-50
2023/03/16 04:22:59;;;;;;;11.13;3.90;;;;;;;3.58;71.08;101251.50;5074956;28;20044;-52
2023/03/16 04:25:29;;;;;;;11.13;3.80;;;;;;;3.71;70.35;101248.09;5076812;28;20395;-50
2023/03/16 04:27:57;;;;;;;9.27;3.92;;;;;;;3.56;69.94;101242.88;5074794;28;20086;-50
2023/03/16 04:30:27;;;;;;;10.02;3.85;;;;;;;3.63;70.27;101244.19;5074231;28;20070;-53
2023/03/16 04:33:03;;;;;;;9.52;3.92;;;;;;;3.55;69.72;101243.84;5074866;28;20460;-51
2023/03/16 04:35:30;;;;;;;10.70;3.80;;;;;;;3.53;70.41;101245.72;5074435;28;20131;-53
2023/03/16 04:37:57;;;;;;;10.32;3.92;;;;;;;3.63;69.75;101238.09;5074259;28;20055;-51
2023/03/16 04:40:32;;;;;;;11.40;3.90;;;;;;;3.59;69.71;101234.81;5050103;28;20064;-52
2023/03/16 04:43:06;;;;;;;12.93;4.57;;;;;;;3.60;69.37;101236.53;5053806;28;20475;-51
2023/03/16 04:45:33;;;;;;;12.30;4.30;;;;;;;3.49;70.24;101220.59;5062767;28;20048;-50
2023/03/16 04:48:01;;;;;;;8.98;3.90;;;;;;;3.52;70.19;101230.91;5073857;28;20440;-50
2023/03/16 04:50:28;;;;;;;10.30;3.83;;;;;;;3.50;70.15;101230.16;5072729;28;20041;-53
2023/03/16 04:52:55;;;;;;;10.95;3.72;;;;;;;3.39;70.61;101220.34;5074738;28;20051;-52
2023/03/16 04:55:22;;;;;;;9.68;4.00;;;;;;;3.49;69.67;101225.00;5074458;28;20048;-51
2023/03/16 04:57:51;;;;;;;12.40;3.92;;;;;;;3.41;69.83;101228.94;5074787;28;20056;-50
2023/03/16 05:00:20;;;;;;;11.50;4.15;;;;;;;3.45;70.50;101225.19;5072904;28;20044;-53
2023/03/16 05:02:55;;;;;;;7.88;3.72;;;;;;;3.50;69.97;101229.31;5073931;28;20041;-50
2023/03/16 05:05:21;;;;;;;14.18;4.10;;;;;;;3.48;70.23;101218.94;5074277;28;20055;-52
2023/03/16 05:07:48;;;;;;;8.23;3.92;;;;;;;3.54;70.38;101221.16;5074441;28;20102;-51
2023/03/16 05:10:18;;;;;;;11.25;4.25;;;;;;;3.45;70.76;101222.56;5072123;28;20133;-50
2023/03/16 05:12:45;;;;;;;9.52;4.22;;;;;;;3.37;71.34;101219.59;5072825;28;20120;-50
2023/03/16 05:15:13;;;;;;;13.00;4.78;;;;;;;3.41;71.56;101221.09;5072180;28;20046;-54
2023/03/16 05:17:41;;;;;;;13.10;5.03;;;;;;;3.42;71.25;101222.78;5074189;28;20055;-54
2023/03/16 05:20:11;;;;;;;9.40;3.97;;;;;;;3.49;70.38;101220.59;5073397;28;20144;-54
2023/03/16 05:22:45;;;;;;;10.40;4.55;;;;;;;3.44;70.39;101222.69;5072299;28;20056;-52
2023/03/16 05:25:30;;;;;;;9.02;4.22;;;;;;;3.45;70.54;101233.06;5070445;28;20475;-53
2023/03/16 05:28:03;;;;;;;14.30;5.13;;;;;;;3.42;70.97;101220.16;5073844;28;20093;-51
2023/03/16 05:30:36;;;;;;;12.98;5.00;;;;;;;3.38;71.91;101223.88;5073618;28;20088;-51
2023/03/16 05:33:07;;;;;;;10.00;4.50;;;;;;;3.41;71.06;101222.88;5073086;28;20035;-51
2023/03/16 05:35:34;;;;;;;10.18;4.30;;;;;;;3.52;72.16;101216.94;5073107;28;20513;-51
2023/03/16 05:38:05;;;;;;;11.40;4.75;;;;;;;3.53;72.03;101216.88;5071818;28;20053;-50
2023/03/16 05:40:36;;;;;;;11.90;4.35;;;;;;;3.43;71.09;101211.34;5073344;28;20509;-51
2023/03/16 05:43:12;;;;;;;10.48;4.93;;;;;;;3.53;71.50;101216.00;5073362;28;20040;-52
2023/03/16 05:45:45;;;;;;;11.82;4.68;;;;;;;3.59;71.55;101207.75;5072605;28;20056;-51
2023/03/16 05:48:15;;;;;;;11.35;4.45;;;;;;;3.56;71.20;101214.03;5072392;28;20072;-49
2023/03/16 05:50:47;;;;;;;11.20;4.78;;;;;;;3.40;71.68;101227.28;5072444;28;20367;-50
2023/03/16 05:53:17;;;;;;;16.55;5.20;;;;;;;3.53;71.58;101223.88;5073683;28;20045;-50
2023/03/16 05:55:44;;;;;;;12.25;4.70;;;;;;;3.45;71.56;101230.44;5072408;28;20040;-49
2023/03/16 05:58:14;;;;;;;10.20;4.88;;;;;;;3.33;72.22;101223.34;5072489;28;20060;-49
2023/03/16 06:00:42;;;;;;;12.30;4.90;;;;;;;3.55;72.42;101225.47;5072733;28;20124;-51
2023/03/16 06:03:21;;;;;;;12.88;5.22;;;;;;;3.61;72.76;101225.06;5073203;28;20048;-50
2023/03/16 06:05:49;;;;;;;15.77;5.25;;;;;;;3.58;72.12;101214.75;5073372;28;20040;-51
2023/03/16 06:08:22;;;;;;;11.77;5.13;;;;;;;3.58;71.73;101219.19;5072280;28;20616;-50
2023/03/16 06:10:50;;;;;;;15.23;5.20;;;;;;;3.67;72.26;101213.34;5073088;28;20128;-50
2023/03/16 06:13:18;;;;;;;12.82;5.15;;;;;;;3.76;71.11;101211.91;5072487;28;20375;-50
2023/03/16 06:15:45;;;;;;;13.55;5.50;;;;;;;3.74;70.63;101217.25;5072221;28;20055;-51
2023/03/16 06:18:12;;;;;;;11.70;5.45;;;;;;;3.75;71.62;101211.09;5073075;28;20075;-52
2023/03/16 06:20:39;;;;;;;15.35;5.38;;;;;;;3.85;71.84;101214.78;5072255;28;20457;-50
2023/03/16 06:23:06;;;;;;;15.13;5.47;;;;;;;3.86;71.40;101218.28;5072914;28;20393;-52
2023/03/16 06:25:33;;;;;;;11.63;5.60;;;;;;;3.83;71.18;101221.91;5071643;28;20040;-51
2023/03/16 06:28:00;;;;;;;11.57;5.55;;;;;;;3.94;70.77;101221.22;5071580;28;20579;-51
2023/03/16 06:30:28;;;;;;;13.50;5.63;;;;;;;4.02;70.70;101221.59;5070667;28;20049;-53
2023/03/16 06:32:55;;;;;;;12.00;5.72;;;;;;;4.04;71.12;101217.06;5075232;28;20162;-51
2023/03/16 06:35:22;;;;;;;11.32;4.80;;;;;;;4.12;70.61;101218.34;5073007;28;20053;-49
2023/03/16 06:38:04;;;;;;;12.82;5.05;;;;;;;4.08;69.68;101230.84;5072907;28;20048;-52
2023/03/16 06:40:41;;;;;;;18.10;5.88;;;;;;;4.09;69.96;101231.69;5064508;28;20079;-50
2023/03/16 06:43:08;;;;;;;13.18;5.72;;;;;;;4.26;69.71;101233.19;5057881;28;20128;-53
2023/03/16 06:45:35;;;;;;;12.35;5.55;;;;;;;4.18;70.09;101229.31;5072099;28;20367;-50
2023/03/16 06:48:02;;;;;;;11.38;5.57;;;;;;;4.28;69.83;101234.78;5072280;28;20123;-50
2023/03/16 06:50:29;;;;;;;14.38;5.72;;;;;;;4.33;69.18;101239.72;5071100;28;20450;-49
2023/03/16 06:52:56;;;;;;;14.20;5.53;;;;;;;4.30;68.85;101230.28;5071957;28;20040;-50
2023/03/16 06:55:22;;;;;;;15.45;6.10;;;;;;;4.34;68.85;101236.16;5072526;28;20044;-49
2023/03/16 06:57:49;;;;;;;18.75;5.95;;;;;;;4.27;69.02;101227.84;5069730;28;20048;-51
2023/03/16 07:00:17;;;;;;;16.48;5.55;;;;;;;4.23;69.26;101229.81;5071870;28;20083;-49
2023/03/16 07:02:44;;;;;;;17.23;6.43;;;;;;;4.19;70.54;101230.97;5074156;28;20045;-49
2023/03/16 07:05:12;;;;;;;16.80;5.20;;;;;;;4.21;69.44;101228.25;5070046;28;20052;-49
2023/03/16 07:07:42;;;;;;;12.00;5.25;;;;;;;4.23;69.92;101237.69;5071657;28;20048;-50
2023/03/16 07:10:11;;;;;;;14.13;5.32;;;;;;;4.26;69.47;101235.81;5075869;28;20056;-52
2023/03/16 07:12:38;;;;;;;11.73;5.28;;;;;;;4.20;68.88;101235.31;5075354;28;20059;-51
2023/03/16 07:15:05;;;;;;;13.63;5.65;;;;;;;4.24;69.58;101233.31;5075869;28;20084;-52
2023/03/16 07:17:33;;;;;;;14.77;5.93;;;;;;;4.26;69.09;101241.94;5075061;28;20445;-52
2023/03/16 07:20:06;;;;;;;12.90;5.43;;;;;;;4.32;69.46;101232.81;5075638;28;20049;-48
2023/03/16 07:22:32;;;;;;;14.75;5.18;;;;;;;4.41;68.63;101234.81;5074249;28;20040;-51
2023/03/16 07:25:00;;;;;;;16.33;5.57;;;;;;;4.62;67.72;101235.19;5091391;28;20044;-50
2023/03/16 07:27:28;;;;;;;11.60;5.40;;;;;;;4.49;69.01;101239.56;5074839;28;20045;-50
2023/03/16 07:29:56;;;;;;;11.52;5.18;;;;;;;4.61;68.24;101252.72;5076073;28;20094;-51
2023/03/16 07:32:24;;;;;;;12.02;5.95;;;;;;;4.60;67.86;101250.19;5075073;28;20037;-50
2023/03/16 07:34:52;;;;;;;14.20;5.35;;;;;;;4.43;69.06;101243.44;5075427;28;20108;-49
2023/03/16 07:37:20;;;;;;;12.48;5.63;;;;;;;4.67;67.98;101246.19;5075824;28;20493;-50
2023/03/16 07:39:53;;;;;;;13.32;6.15;;;;;;;4.74;67.86;101250.09;5075840;28;20404;-53
2023/03/16 07:42:21;;;;;;;12.77;5.95;;;;;;;4.78;67.98;101254.22;5075073;28;20076;-49
2023/03/16 07:45:03;;;;;;;11.10;5.72;;;;;;;4.88;67.40;101262.31;5075035;28;20493;-52
2023/03/16 07:47:30;;;;;;;13.40;5.88;;;;;;;4.90;67.14;101249.06;5069670;28;20437;-49
2023/03/16 07:50:06;;;;;;;12.30;5.10;;;;;;;5.04;66.26;101248.09;4989858;28;20056;-51
2023/03/16 07:52:33;;;;;;;13.40;5.75;;;;;;;4.88;68.08;101248.34;5026953;28;20037;-52
2023/03/16 07:55:02;;;;;;;14.80;6.03;;;;;;;4.93;67.75;101249.72;5078633;28;20724;-52
2023/03/16 07:57:30;;;;;;;13.18;5.78;;;;;;;4.74;67.13;101247.47;5061145;28;20135;-48
2023/03/16 07:59:58;;;;;;;12.50;5.38;;;;;;;4.88;67.40;101243.91;5045322;28;20672;-52
2023/03/16 08:02:25;;;;;;;11.68;5.50;;;;;;;4.96;68.24;101244.22;5075362;28;20083;-49
2023/03/16 08:04:53;;;;;;;12.40;5.47;;;;;;;5.08;68.29;101245.19;5074144;28;20137;-51
2023/03/16 08:07:20;;;;;;;13.73;5.43;;;;;;;5.28;66.69;101251.69;5080998;28;20043;-52
2023/03/16 08:09:52;;;;;;;148.15;65.20;;;;;;;5.39;67.77;101246.50;5060605;28;20413;-53
2023/03/16 08:12:25;;;;;;;17.95;6.93;;;;;;;5.48;66.80;101242.38;5001599;28;20067;-54
2023/03/16 08:14:53;;;;;;;14.80;5.55;;;;;;;5.53;65.51;101236.78;5069099;28;20049;-51
2023/03/16 08:17:24;;;;;;;15.65;6.25;;;;;;;5.34;66.26;101232.00;5077825;28;20036;-51
2023/03/16 08:19:52;;;;;;;13.07;6.18;;;;;;;5.51;65.32;101229.00;5055050;28;20053;-52
2023/03/16 08:22:20;;;;;;;13.48;5.97;;;;;;;5.46;66.60;101227.66;5070570;28;20544;-53
2023/03/16 08:24:47;;;;;;;11.95;5.53;;;;;;;5.38;66.61;101222.91;5048216;28;20067;-50
2023/03/16 08:27:16;;;;;;;12.00;5.80;;;;;;;5.31;67.41;101227.78;5000279;28;20049;-50
2023/03/16 08:29:51;;;;;;;13.13;5.93;;;;;;;5.55;66.50;101227.84;5063839;28;20032;-52
2023/03/16 08:32:19;;;;;;;13.35;6.28;;;;;;;5.54;67.00;101218.25;5065722;28;20569;-48
2023/03/16 08:34:48;;;;;;;16.25;5.68;;;;;;;5.87;65.36;101223.84;5067273;28;20131;-50
2023/03/16 08:37:16;;;;;;;12.95;5.75;;;;;;;5.90;65.32;101220.97;5062831;28;20044;-53
2023/03/16 08:39:44;;;;;;;13.48;5.72;;;;;;;5.99;64.65;101222.97;5079486;28;20401;-55
2023/03/16 08:42:15;;;;;;;11.38;6.00;;;;;;;6.12;64.68;101221.09;4994541;28;20040;-51
2023/03/16 08:44:47;;;;;;;11.18;5.13;;;;;;;6.20;64.18;101227.59;5069652;28;20078;-51
2023/03/16 08:47:14;;;;;;;15.23;5.60;;;;;;;5.90;64.28;101234.16;5062564;28;20111;-52
2023/03/16 08:49:43;;;;;;;12.65;5.57;;;;;;;5.96;65.27;101229.28;5077045;28;20059;-51
2023/03/16 08:52:13;;;;;;;11.80;5.82;;;;;;;5.56;66.40;101226.88;5059547;28;20063;-52
2023/03/16 08:54:40;;;;;;;13.23;6.00;;;;;;;5.70;65.60;101228.53;5071638;28;20151;-53
2023/03/16 08:57:12;;;;;;;11.48;5.40;;;;;;;5.76;65.48;101240.41;4999192;28;20059;-53
2023/03/16 08:59:39;;;;;;;11.98;5.50;;;;;;;5.82;64.96;101233.84;5039791;28;20035;-51
2023/03/16 09:02:11;;;;;;;11.05;5.80;;;;;;;5.65;65.57;101235.91;5045929;28;20072;-52
2023/03/16 09:04:37;;;;;;;13.30;6.13;;;;;;;5.89;65.85;101227.19;5047715;28;20491;-50
2023/03/16 09:07:04;;;;;;;10.75;5.35;;;;;;;5.87;65.40;101235.19;5040226;28;20048;-52
2023/03/16 09:09:35;;;;;;;14.32;6.05;;;;;;;5.82;65.60;101226.81;5050267;28;20120;-51
2023/03/16 09:12:03;;;;;;;12.10;5.93;;;;;;;5.94;65.22;101228.53;5049514;28;20119;-53
2023/03/16 09:14:30;;;;;;;15.25;5.90;;;;;;;6.11;65.61;101231.75;5049160;28;20036;-50
2023/03/16 09:16:57;;;;;;;14.63;5.70;;;;;;;6.21;65.19;101224.84;5047448;28;20105;-52
2023/03/16 09:19:24;;;;;;;11.57;5.70;;;;;;;6.39;64.61;101209.47;4989401;28;20101;-54
2023/03/16 09:21:50;;;;;;;13.35;5.38;;;;;;;6.57;63.61;101209.88;5049099;28;20041;-49
2023/03/16 09:24:17;;;;;;;13.35;5.70;;;;;;;6.77;62.84;101218.91;5040489;28;20040;-51
2023/03/16 09:26:44;;;;;;;16.02;5.85;;;;;;;6.75;64.62;101215.56;5045444;28;20090;-51
2023/03/16 09:29:11;;;;;;;15.70;5.97;;;;;;;6.82;63.30;101214.13;5036882;28;20055;-53
2023/03/16 09:31:38;;;;;;;15.27;5.30;;;;;;;6.95;63.18;101219.28;5047483;28;20127;-50
2023/03/16 09:34:05;;;;;;;13.88;6.20;;;;;;;6.97;63.80;101219.16;4989194;28;20045;-51
2023/03/16 09:36:33;;;;;;;12.68;5.65;;;;;;;7.26;62.29;101209.81;5045101;28;20041;-50
2023/03/16 09:39:00;;;;;;;10.40;5.53;;;;;;;7.48;60.51;101208.13;5034420;28;20063;-52
2023/03/16 09:41:52;;;;;;;11.20;5.38;;;;;;;7.52;60.35;101198.16;5074466;28;20049;-52
2023/03/16 09:44:52;;;;;;;15.68;6.22;;;;;;;7.76;59.06;101200.59;5045833;28;20037;-53
2023/03/16 09:47:26;;;;;;;11.90;5.05;;;;;;;7.52;60.15;101193.69;5024696;28;20061;-52
2023/03/16 09:49:57;;;;;;;14.10;4.93;;;;;;;7.50;60.74;101193.81;4987601;28;20052;-51
2023/03/16 09:52:38;;;;;;;10.45;4.90;;;;;;;7.14;61.27;101179.09;5030176;28;21127;-50
2023/03/16 09:55:30;;;;;;;14.30;5.03;;;;;;;7.41;60.21;101176.06;5050759;28;20115;-52
2023/03/16 09:57:58;;;;;;;;;;;;;;;7.41;61.43;101167.34;5041033;28;20043;-51
2023/03/16 10:00:30;;;;;;;11.80;5.05;;;;;;;7.20;60.00;101162.78;5052768;28;19925;-50
2023/03/16 10:03:28;;;;;;;14.25;5.32;;;;;;;7.31;61.35;101167.22;4995012;28;21528;-50
2023/03/16 10:06:01;;;;;;;11.90;5.65;;;;;;;7.40;60.35;101160.34;5031370;28;20093;-49
2023/03/16 10:08:31;;;;;;;;;;;;;;;7.41;60.83;101167.34;5034519;28;20058;-52
2023/03/16 10:11:38;;;;;;;11.65;5.60;;;;;;;7.48;59.69;101169.34;5048485;28;20664;-51
2023/03/16 10:14:44;;;;;;;14.13;5.88;;;;;;;7.66;59.52;101163.56;5047939;28;20044;-51
2023/03/16 10:17:17;;;;;;;11.02;5.18;;;;;;;7.99;59.35;101161.75;5045868;28;20115;-51
2023/03/16 10:19:52;;;;;;;12.38;5.30;;;;;;;7.94;58.18;101156.00;5057206;28;20059;-51
2023/03/16 10:22:25;;;;;;;13.73;5.95;;;;;;;8.09;59.50;101160.00;5058100;28;20048;-50
2023/03/16 10:25:18;;;;;;;11.82;5.55;;;;;;;7.92;58.88;101166.69;5054023;28;20055;-52
2023/03/16 10:27:47;;;;;;;13.15;5.78;;;;;;;7.98;58.79;101157.41;5054993;28;20053;-53
2023/03/16 10:30:39;;;;;;;15.48;6.03;;;;;;;8.01;58.16;101160.66;5060259;28;20175;-50
2023/03/16 10:33:29;;;;;;;14.55;5.70;;;;;;;8.49;58.30;101167.25;5055029;28;20098;-52
2023/03/16 10:36:04;;;;;;;13.02;6.32;;;;;;;8.48;57.84;101164.75;5058532;28;20033;-49
2023/03/16 10:38:41;;;;;;;16.63;5.93;;;;;;;8.87;56.67;101165.78;5050990;28;20157;-52
2023/03/16 10:41:29;;;;;;;14.45;6.30;;;;;;;9.01;55.26;101152.19;5061473;28;20498;-52
2023/03/16 10:44:06;;;;;;;12.32;5.72;;;;;;;9.40;54.08;101149.69;5054911;28;20048;-53
2023/03/16 10:46:47;;;;;;;15.82;6.70;;;;;;;10.05;52.54;101148.31;5059850;28;20044;-51
2023/03/16 10:49:35;;;;;;;14.70;5.93;;;;;;;10.37;50.17;101138.25;5057396;28;20052;-51
2023/03/16 10:52:12;;;;;;;14.82;5.38;;;;;;;11.04;50.13;101140.81;5061209;28;20212;-50
2023/03/16 10:54:46;;;;;;;11.85;5.22;;;;;;;10.57;50.29;101139.03;5052253;28;20512;-50
2023/03/16 11:00:15;;;;;;;12.18;4.93;;;;;;;10.91;49.11;101119.94;5080422;27;20931;-49
2023/03/16 11:02:42;;;;;;;10.95;5.22;;;;;;;10.61;50.56;101123.66;5074170;28;20131;-49
2023/03/16 11:08:00;;;;;;;13.95;5.57;;;;;;;10.37;51.61;101116.22;5038027;28;20402;-49
2023/03/16 11:10:34;;;;;;;9.73;4.72;;;;;;;10.86;48.93;101114.22;5033246;28;20098;-54
2023/03/16 11:13:13;;;;;;;16.33;5.32;;;;;;;12.00;47.22;101121.72;5041323;28;20047;-51
2023/03/16 11:15:49;;;;;;;14.55;5.38;;;;;;;12.36;45.69;101110.16;5036226;28;20041;-48
2023/03/16 11:18:27;;;;;;;11.10;5.15;;;;;;;13.29;45.07;101109.41;5039416;28;20060;-51
2023/03/16 11:20:55;;;;;;;11.95;4.90;;;;;;;12.51;45.08;101105.91;5043052;28;20041;-53
2023/03/16 11:23:31;;;;;;;9.75;4.85;;;;;;;12.74;44.08;101102.72;5058601;28;20053;-49
2023/03/16 11:26:06;;;;;;;10.45;4.88;;;;;;;13.64;42.46;101100.31;5038794;28;20154;-49
2023/03/16 11:28:37;;;;;;;11.82;4.80;;;;;;;14.06;42.00;101102.03;5041029;28;20049;-52
2023/03/16 11:31:31;;;;;;;13.73;5.20;;;;;;;15.55;40.39;101087.06;5039998;28;20038;-50
2023/03/16 11:33:58;;;;;;;10.85;5.10;;;;;;;15.49;37.80;101090.47;5041678;28;20063;-52
2023/03/16 11:36:40;;;;;;;16.00;5.30;;;;;;;15.51;37.58;101080.41;5026948;28;20041;-50
2023/03/16 11:39:26;;;;;;;19.30;4.72;;;;;;;16.95;36.14;101083.88;5061282;28;20043;-50
2023/03/16 11:42:22;;;;;;;11.35;4.70;;;;;;;15.90;37.18;101082.16;5035630;28;20048;-50
2023/03/16 11:44:58;;;;;;;10.88;4.57;;;;;;;16.88;35.55;101077.59;5041209;28;20067;-50
2023/03/16 11:47:54;;;;;;;10.82;4.13;;;;;;;17.17;34.60;101071.38;5030825;28;20040;-48
2023/03/16 11:50:38;;;;;;;10.38;4.45;;;;;;;17.30;34.86;101070.69;5036448;28;20176;-51